Time;durP1;ratioP1;P1;durP2;ratioP2;P2;SDS_P1;SDS_P2;PMS_P1;PMS_P2;Temp;Humidity;BMP_temperature;BMP_pressure;BME280_temperature;BME280_humidity;BME280_pressure;Samples;Min_cycle;Max_cycle;Signal;HPM_P1;HPM_P2
2021/11/24 00:00:58;;;;;;;18.73;13.10;;;8.50;99.90;;;;;;5033703;28;20540;-77
2021/11/24 00:03:24;;;;;;;22.43;13.47;;;8.50;99.90;;;;;;5033837;28;20759;-77
2021/11/24 00:05:52;;;;;;;18.97;12.77;;;8.50;99.90;;;;;;5033679;28;20879;-77
2021/11/24 00:08:19;;;;;;;17.77;11.93;;;8.50;99.90;;;;;;5033858;28;20445;-77
2021/11/24 00:10:45;;;;;;;25.20;13.10;;;8.50;99.90;;;;;;5033520;28;20477;-77
2021/11/24 00:13:12;;;;;;;25.90;13.27;;;8.50;99.90;;;;;;5033170;28;20543;-77
2021/11/24 00:15:38;;;;;;;21.53;13.00;;;8.60;99.90;;;;;;5033367;28;20502;-78
2021/11/24 00:18:05;;;;;;;18.13;11.80;;;8.50;99.90;;;;;;5033544;28;20481;-77
2021/11/24 00:20:32;;;;;;;18.33;12.77;;;8.50;99.90;;;;;;5033452;28;20536;-77
2021/11/24 00:22:59;;;;;;;25.20;14.23;;;8.50;99.90;;;;;;5033550;28;20528;-78
2021/11/24 00:25:26;;;;;;;20.93;12.87;;;8.50;99.90;;;;;;5033638;28;20572;-77
2021/11/24 00:27:53;;;;;;;22.53;13.77;;;8.40;99.90;;;;;;5033410;28;20648;-78
2021/11/24 00:30:19;;;;;;;17.00;11.07;;;8.40;99.90;;;;;;5033421;28;20544;-78
2021/11/24 00:32:46;;;;;;;32.57;12.00;;;8.40;99.90;;;;;;5033381;28;20485;-78
2021/11/24 00:35:12;;;;;;;17.23;11.00;;;8.30;99.90;;;;;;5033239;28;20488;-78
2021/11/24 00:37:39;;;;;;;16.50;11.50;;;8.30;99.90;;;;;;5033432;28;20489;-78
2021/11/24 00:40:08;;;;;;;19.03;10.93;;;8.30;99.90;;;;;;5049499;28;20516;-78
2021/11/24 00:42:34;;;;;;;17.63;11.37;;;8.30;99.90;;;;;;5048853;28;20853;-78
2021/11/24 00:45:01;;;;;;;16.40;10.70;;;8.30;99.90;;;;;;5032839;28;21059;-78
2021/11/24 00:47:28;;;;;;;18.57;12.37;;;8.30;99.90;;;;;;5033153;28;20490;-77
2021/11/24 00:49:54;;;;;;;17.47;11.70;;;8.30;99.90;;;;;;5032909;28;20545;-77
2021/11/24 00:52:21;;;;;;;16.83;11.20;;;8.30;99.90;;;;;;5033214;28;20544;-77
2021/11/24 00:54:47;;;;;;;19.17;12.80;;;8.30;99.90;;;;;;5033044;28;20543;-78
2021/11/24 00:57:15;;;;;;;21.27;11.37;;;8.40;99.90;;;;;;5033141;28;20515;-78
2021/11/24 00:59:42;;;;;;;20.17;11.60;;;8.40;99.90;;;;;;5032830;28;20536;-78
2021/11/24 01:02:09;;;;;;;16.77;10.90;;;8.40;99.90;;;;;;5033048;28;20459;-78
2021/11/24 01:04:35;;;;;;;20.37;11.87;;;8.40;99.90;;;;;;5032657;28;20562;-77
2021/11/24 01:07:02;;;;;;;19.33;11.03;;;8.40;99.90;;;;;;5033009;28;20544;-77
2021/11/24 01:09:28;;;;;;;17.00;11.80;;;8.40;99.90;;;;;;5032837;28;20504;-77
2021/11/24 01:11:56;;;;;;;19.20;12.43;;;8.40;99.90;;;;;;5032737;28;21028;-78
2021/11/24 01:14:24;;;;;;;17.57;11.43;;;8.40;99.90;;;;;;5032698;28;20559;-77
2021/11/24 01:16:50;;;;;;;17.87;11.97;;;8.40;99.90;;;;;;5032815;28;20489;-77
2021/11/24 01:19:17;;;;;;;17.20;12.10;;;8.40;99.90;;;;;;5032917;28;20540;-77
2021/11/24 01:21:44;;;;;;;21.73;11.93;;;8.40;99.90;;;;;;5032823;28;20790;-77
2021/11/24 01:24:11;;;;;;;17.50;12.43;;;8.40;99.90;;;;;;5034675;28;21023;-77
2021/11/24 01:26:37;;;;;;;18.87;11.80;;;8.40;99.90;;;;;;5036890;28;20912;-77
2021/11/24 01:29:04;;;;;;;18.53;12.40;;;8.40;99.90;;;;;;5036599;28;20453;-77
2021/11/24 01:31:32;;;;;;;20.23;11.87;;;8.40;99.90;;;;;;5036448;28;20543;-77
2021/11/24 01:33:59;;;;;;;18.07;11.70;;;8.40;99.90;;;;;;5036694;28;20543;-77
2021/11/24 01:36:27;;;;;;;22.00;12.43;;;8.40;99.90;;;;;;5036531;28;20543;-77
2021/11/24 01:38:54;;;;;;;18.70;12.37;;;8.50;99.90;;;;;;5036544;28;20886;-77
2021/11/24 01:41:20;;;;;;;17.03;11.00;;;8.50;99.90;;;;;;5036380;28;20456;-77
2021/11/24 01:43:47;;;;;;;17.57;11.90;;;8.40;99.90;;;;;;5036268;28;20877;-77
2021/11/24 01:46:13;;;;;;;18.87;11.73;;;8.40;99.90;;;;;;5036078;28;20484;-77
2021/11/24 01:48:41;;;;;;;21.53;12.90;;;8.40;99.90;;;;;;5036477;28;20890;-78
2021/11/24 01:51:08;;;;;;;16.60;11.27;;;8.30;99.90;;;;;;5036213;28;20540;-77
2021/11/24 01:53:34;;;;;;;19.60;11.40;;;8.30;99.90;;;;;;5036246;28;20532;-77
2021/11/24 01:56:01;;;;;;;20.43;11.80;;;8.30;99.90;;;;;;5036213;28;20910;-77
2021/11/24 01:58:28;;;;;;;16.40;11.10;;;8.30;99.90;;;;;;5035879;28;20495;-77
2021/11/24 02:00:55;;;;;;;18.10;12.33;;;8.40;99.90;;;;;;5036128;28;20877;-77
2021/11/24 02:03:21;;;;;;;17.33;11.77;;;8.40;99.90;;;;;;5036126;28;20476;-77
2021/11/24 02:05:49;;;;;;;17.77;10.30;;;8.40;99.90;;;;;;5035967;28;20844;-77
2021/11/24 02:08:15;;;;;;;23.53;10.93;;;8.40;99.90;;;;;;5035960;28;20543;-77
2021/11/24 02:10:42;;;;;;;16.80;11.23;;;8.40;99.90;;;;;;5035811;28;20841;-77
2021/11/24 02:13:09;;;;;;;13.13;9.97;;;8.40;99.90;;;;;;5035737;28;20551;-77
2021/11/24 02:15:35;;;;;;;16.97;9.90;;;8.40;99.90;;;;;;5035842;28;20481;-77
2021/11/24 02:18:03;;;;;;;18.20;9.93;;;8.40;99.90;;;;;;5035888;28;20536;-77
2021/11/24 02:20:41;;;;;;;15.10;10.23;;;8.40;99.90;;;;;;5035760;28;20826;-77
2021/11/24 02:23:10;;;;;;;16.10;11.10;;;8.40;99.90;;;;;;5035654;28;20496;-77
2021/11/24 02:25:37;;;;;;;16.50;9.57;;;8.40;99.90;;;;;;5035417;28;21011;-77
2021/11/24 02:28:04;;;;;;;13.53;9.63;;;8.40;99.90;;;;;;5035701;28;21008;-77
2021/11/24 02:30:31;;;;;;;15.80;10.30;;;8.40;99.90;;;;;;5035670;28;20449;-77
2021/11/24 02:32:58;;;;;;;20.00;11.30;;;8.40;99.90;;;;;;5035307;28;21002;-77
2021/11/24 02:35:25;;;;;;;21.90;10.77;;;8.40;99.90;;;;;;5034653;28;20544;-77
2021/11/24 02:37:53;;;;;;;17.57;10.10;;;8.40;99.90;;;;;;5035401;28;20449;-78
2021/11/24 02:40:20;;;;;;;17.63;10.90;;;8.40;99.90;;;;;;5035270;28;20531;-78
2021/11/24 02:42:46;;;;;;;12.70;8.53;;;8.40;99.90;;;;;;5035303;28;20524;-78
2021/11/24 02:45:13;;;;;;;12.80;8.77;;;8.40;99.90;;;;;;5035242;28;20560;-78
2021/11/24 02:47:39;;;;;;;15.77;10.27;;;8.40;99.90;;;;;;5035323;28;20473;-78
2021/11/24 02:50:07;;;;;;;18.63;9.90;;;8.40;99.90;;;;;;5035014;28;20970;-77
2021/11/24 02:52:34;;;;;;;15.10;9.27;;;8.40;99.90;;;;;;5035180;28;20552;-77
2021/11/24 02:55:05;;;;;;;13.60;9.70;;;8.50;99.90;;;;;;5035030;28;20540;-77
2021/11/24 02:57:34;;;;;;;14.97;9.13;;;8.40;99.90;;;;;;5035429;28;20485;-78
2021/11/24 03:00:00;;;;;;;13.70;9.17;;;8.40;99.90;;;;;;5035021;28;20988;-78
2021/11/24 03:02:27;;;;;;;12.97;8.80;;;8.40;99.90;;;;;;5034837;28;20540;-78
2021/11/24 03:04:54;;;;;;;12.70;9.07;;;8.40;99.90;;;;;;5034801;28;20837;-78
2021/11/24 03:07:20;;;;;;;13.27;8.30;;;8.40;99.90;;;;;;5034819;28;20540;-77
2021/11/24 03:09:47;;;;;;;16.53;9.30;;;8.40;99.90;;;;;;5034630;28;20887;-77
2021/11/24 03:12:15;;;;;;;16.10;10.47;;;8.30;99.90;;;;;;5034858;28;20532;-77
2021/11/24 03:14:42;;;;;;;14.20;9.83;;;8.30;99.90;;;;;;5034803;28;20873;-77
2021/11/24 03:17:08;;;;;;;15.63;10.07;;;8.30;99.90;;;;;;5034612;28;20449;-77
2021/11/24 03:19:35;;;;;;;14.10;9.83;;;8.20;99.90;;;;;;5034628;28;20891;-77
2021/11/24 03:22:01;;;;;;;20.47;9.53;;;8.20;99.90;;;;;;5034270;28;20481;-77
2021/11/24 03:24:28;;;;;;;17.87;9.40;;;8.10;99.90;;;;;;5034701;28;20539;-77
2021/11/24 03:26:54;;;;;;;15.60;9.50;;;8.10;99.90;;;;;;5034545;28;20886;-77
2021/11/24 03:29:22;;;;;;;21.27;9.30;;;8.10;99.90;;;;;;5034626;28;21016;-77
2021/11/24 03:31:49;;;;;;;15.43;8.50;;;8.10;99.90;;;;;;5034380;28;20536;-77
2021/11/24 03:34:15;;;;;;;13.73;9.60;;;8.10;99.90;;;;;;5034166;28;20489;-79
2021/11/24 03:36:42;;;;;;;16.40;9.50;;;8.10;99.90;;;;;;5034411;28;20548;-78
2021/11/24 03:39:09;;;;;;;12.40;8.53;;;8.10;99.90;;;;;;5034394;28;20536;-77
2021/11/24 03:41:35;;;;;;;13.27;8.97;;;8.20;99.90;;;;;;5034126;28;20998;-77
2021/11/24 03:44:02;;;;;;;14.37;8.37;;;8.20;99.90;;;;;;5034226;28;20476;-77
2021/11/24 03:46:29;;;;;;;12.97;8.17;;;8.10;99.90;;;;;;5033305;28;21063;-77
2021/11/24 03:48:56;;;;;;;15.70;9.00;;;8.20;99.90;;;;;;5033625;28;20541;-78
2021/11/24 03:51:23;;;;;;;15.40;9.20;;;8.10;99.90;;;;;;5034062;28;20492;-78
2021/11/24 03:53:51;;;;;;;12.57;8.93;;;8.10;99.90;;;;;;5034071;28;20536;-78
2021/11/24 03:56:17;;;;;;;16.33;8.93;;;8.20;99.90;;;;;;5033715;28;20531;-77
2021/11/24 03:58:44;;;;;;;14.40;8.77;;;8.20;99.90;;;;;;5033842;28;20548;-78
2021/11/24 04:01:12;;;;;;;13.03;8.07;;;8.20;99.90;;;;;;5034022;28;20529;-77
2021/11/24 04:03:40;;;;;;;12.63;8.27;;;8.20;99.90;;;;;;5034231;28;20549;-77
2021/11/24 04:06:07;;;;;;;12.83;9.13;;;8.20;99.90;;;;;;5033686;28;20481;-77
2021/11/24 04:08:34;;;;;;;15.30;8.77;;;8.20;99.90;;;;;;5033744;28;20489;-77
2021/11/24 04:11:00;;;;;;;11.40;8.27;;;8.20;99.90;;;;;;5033716;28;20488;-78
2021/11/24 04:13:27;;;;;;;15.07;8.60;;;8.20;99.90;;;;;;5033580;28;20485;-78
2021/11/24 04:15:53;;;;;;;16.53;9.37;;;8.20;99.90;;;;;;5033613;28;20493;-77
2021/11/24 04:18:20;;;;;;;11.73;8.10;;;8.20;99.90;;;;;;5033370;28;20568;-78
2021/11/24 04:20:48;;;;;;;17.00;9.17;;;8.20;99.90;;;;;;5033567;28;20893;-78
2021/11/24 04:23:14;;;;;;;14.80;8.73;;;8.20;99.90;;;;;;5033451;28;20549;-78
2021/11/24 04:25:41;;;;;;;13.13;8.83;;;8.20;99.90;;;;;;5033318;28;20512;-78
2021/11/24 04:28:07;;;;;;;19.47;9.80;;;8.20;99.90;;;;;;5033238;28;21011;-78
2021/11/24 04:30:34;;;;;;;12.50;9.40;;;8.10;99.90;;;;;;5033686;28;20511;-78
2021/11/24 04:33:01;;;;;;;13.50;9.10;;;8.20;99.90;;;;;;5033257;28;20453;-78
2021/11/24 04:35:27;;;;;;;13.20;8.23;;;8.20;99.90;;;;;;5033331;28;20504;-78
2021/11/24 04:37:55;;;;;;;11.60;8.33;;;8.20;99.90;;;;;;5033173;28;20540;-79
2021/11/24 04:40:22;;;;;;;19.60;9.17;;;8.20;99.90;;;;;;5033277;28;20532;-76
2021/11/24 04:42:49;;;;;;;12.03;9.37;;;8.20;99.90;;;;;;5032995;28;20469;-76
2021/11/24 04:45:16;;;;;;;12.43;8.40;;;8.20;99.90;;;;;;5032947;28;20484;-77
2021/11/24 04:47:43;;;;;;;18.67;9.43;;;8.20;99.90;;;;;;5033169;28;20449;-77
2021/11/24 04:50:10;;;;;;;14.90;9.30;;;8.20;99.90;;;;;;5033061;28;20503;-76
2021/11/24 04:52:37;;;;;;;15.53;9.90;;;8.20;99.90;;;;;;5032840;28;20967;-76
2021/11/24 04:55:06;;;;;;;16.73;10.20;;;8.20;99.90;;;;;;5032866;28;20941;-76
2021/11/24 04:57:33;;;;;;;15.27;8.30;;;8.20;99.90;;;;;;5033330;28;20506;-76
2021/11/24 05:00:00;;;;;;;13.20;9.60;;;8.20;99.90;;;;;;5032556;28;20477;-76
2021/11/24 05:02:26;;;;;;;14.97;9.20;;;8.20;99.90;;;;;;5032928;28;20530;-76
2021/11/24 05:04:53;;;;;;;16.90;9.90;;;8.30;99.90;;;;;;5032973;28;20536;-76
2021/11/24 05:07:19;;;;;;;13.97;9.00;;;8.30;99.90;;;;;;5032691;28;20491;-76
2021/11/24 05:09:46;;;;;;;13.77;9.33;;;8.30;99.90;;;;;;5032899;28;21007;-76
2021/11/24 05:12:13;;;;;;;15.97;9.07;;;8.30;99.90;;;;;;5032690;28;20548;-76
2021/11/24 05:14:41;;;;;;;13.07;9.30;;;8.30;99.90;;;;;;5032978;28;20449;-76
2021/11/24 05:17:12;;;;;;;16.57;9.67;;;8.30;99.90;;;;;;5032779;28;20503;-76
2021/11/24 05:19:42;;;;;;;16.77;9.10;;;8.30;99.90;;;;;;5032810;28;20456;-76
2021/11/24 05:22:09;;;;;;;13.60;8.70;;;8.30;99.90;;;;;;5032632;28;20813;-76
2021/11/24 05:24:36;;;;;;;13.30;9.63;;;8.30;99.90;;;;;;5032525;28;20541;-76
2021/11/24 05:27:03;;;;;;;17.90;8.93;;;8.20;99.90;;;;;;5032728;28;20509;-76
2021/11/24 05:29:31;;;;;;;17.00;9.97;;;8.20;99.90;;;;;;5032568;28;20449;-76
2021/11/24 05:31:57;;;;;;;23.10;10.90;;;8.20;99.90;;;;;;5032663;28;20485;-76
2021/11/24 05:34:24;;;;;;;17.63;10.33;;;8.20;99.90;;;;;;5032707;28;20544;-76
2021/11/24 05:36:50;;;;;;;15.30;9.83;;;8.30;99.90;;;;;;5032715;28;20863;-76
2021/11/24 05:39:17;;;;;;;15.33;10.70;;;8.30;99.90;;;;;;5032540;28;20488;-76
2021/11/24 05:41:44;;;;;;;12.67;9.30;;;8.30;99.90;;;;;;5032784;28;21015;-76
2021/11/24 05:44:18;;;;;;;15.87;10.10;;;8.30;99.90;;;;;;5032515;28;20532;-76
2021/11/24 05:46:51;;;;;;;17.30;9.87;;;8.30;99.90;;;;;;5032570;28;20484;-76
2021/11/24 05:49:17;;;;;;;17.40;10.63;;;8.30;99.90;;;;;;5032415;28;20943;-76
2021/11/24 05:51:44;;;;;;;16.20;10.53;;;8.30;99.90;;;;;;5032469;28;20891;-76
2021/11/24 05:54:11;;;;;;;22.73;12.97;;;8.30;99.90;;;;;;5032151;28;20441;-77
2021/11/24 05:56:38;;;;;;;22.43;15.17;;;8.30;99.90;;;;;;5032302;28;20488;-76
2021/11/24 05:59:06;;;;;;;16.07;10.40;;;8.30;99.90;;;;;;5032270;28;20485;-76
2021/11/24 06:01:33;;;;;;;16.23;10.30;;;8.30;99.90;;;;;;5032528;28;20476;-81
2021/11/24 06:04:01;;;;;;;14.10;9.07;;;8.20;99.90;;;;;;5032246;28;20449;-81
2021/11/24 06:06:28;;;;;;;13.90;9.60;;;8.20;99.90;;;;;;5032256;28;20505;-80
2021/11/24 06:08:54;;;;;;;13.70;9.00;;;8.20;99.90;;;;;;5032430;28;20488;-81
2021/11/24 06:11:21;;;;;;;14.73;8.63;;;8.30;99.90;;;;;;5034786;28;21040;-81
2021/11/24 06:13:48;;;;;;;11.77;8.23;;;8.30;99.90;;;;;;5035878;28;20983;-81
2021/11/24 06:16:15;;;;;;;13.77;9.10;;;8.30;99.90;;;;;;5035769;28;20532;-80
2021/11/24 06:18:42;;;;;;;11.87;8.40;;;8.20;99.90;;;;;;5035691;28;20485;-81
2021/11/24 06:21:10;;;;;;;11.97;8.40;;;8.20;99.90;;;;;;5035694;28;20548;-79
2021/11/24 06:23:39;;;;;;;16.50;8.10;;;8.20;99.90;;;;;;5035629;28;20485;-81
2021/11/24 06:26:06;;;;;;;11.90;8.40;;;8.20;99.90;;;;;;5035961;28;20477;-82
2021/11/24 06:28:32;;;;;;;11.53;8.70;;;8.20;99.90;;;;;;5035958;28;20461;-81
2021/11/24 06:30:59;;;;;;;12.73;9.10;;;8.20;99.90;;;;;;5035541;28;21047;-82
2021/11/24 06:33:26;;;;;;;12.30;7.90;;;8.20;99.90;;;;;;5035422;28;21019;-81
2021/11/24 06:35:53;;;;;;;16.10;9.47;;;8.30;99.90;;;;;;5035685;28;20461;-81
2021/11/24 06:38:21;;;;;;;14.37;9.43;;;8.30;99.90;;;;;;5035825;28;20540;-82
2021/11/24 06:40:48;;;;;;;12.20;8.63;;;8.30;99.90;;;;;;5035560;28;20540;-79
2021/11/24 06:43:15;;;;;;;14.43;9.80;;;8.30;99.90;;;;;;5032196;28;20456;-79
2021/11/24 06:45:42;;;;;;;17.97;9.70;;;8.30;99.90;;;;;;5034066;28;20544;-79
2021/11/24 06:48:08;;;;;;;14.13;8.77;;;8.30;99.90;;;;;;5033797;28;20485;-80
2021/11/24 06:50:35;;;;;;;14.63;9.53;;;8.30;99.90;;;;;;5032636;28;20481;-80
2021/11/24 06:53:02;;;;;;;13.90;8.40;;;8.30;99.90;;;;;;5034763;28;20479;-80
2021/11/24 06:55:30;;;;;;;14.20;9.77;;;8.30;99.90;;;;;;5035015;28;20556;-82
2021/11/24 06:57:57;;;;;;;13.67;9.33;;;8.30;99.90;;;;;;5035456;28;20874;-83
2021/11/24 07:00:24;;;;;;;14.00;8.90;;;8.30;99.90;;;;;;5035110;28;20544;-83
2021/11/24 07:02:51;;;;;;;12.07;9.30;;;8.40;99.90;;;;;;5035049;28;20930;-83
2021/11/24 07:05:17;;;;;;;13.50;9.20;;;8.40;99.90;;;;;;5035151;28;20553;-83
2021/11/24 07:07:44;;;;;;;17.43;9.67;;;8.40;99.90;;;;;;5034728;28;20568;-84
2021/11/24 07:10:11;;;;;;;15.57;9.57;;;8.50;99.90;;;;;;5034779;28;20484;-83
2021/11/24 07:12:39;;;;;;;16.93;9.90;;;8.40;99.90;;;;;;5034632;28;20481;-83
2021/11/24 07:15:06;;;;;;;17.50;10.10;;;8.40;99.90;;;;;;5034254;28;20499;-83
2021/11/24 07:17:33;;;;;;;16.30;10.40;;;8.40;99.90;;;;;;5034589;28;20964;-85
2021/11/24 07:20:01;;;;;;;16.23;9.60;;;8.40;99.90;;;;;;5034343;28;20540;-83
2021/11/24 07:22:27;;;;;;;15.00;11.27;;;8.50;99.90;;;;;;5034845;28;20453;-83
2021/11/24 07:24:54;;;;;;;14.53;9.60;;;8.50;99.90;;;;;;5033307;28;20544;-83
2021/11/24 07:27:20;;;;;;;16.57;10.90;;;8.50;99.90;;;;;;5034938;28;20508;-83
2021/11/24 07:29:48;;;;;;;16.10;10.60;;;8.50;99.90;;;;;;5034498;28;20452;-82
2021/11/24 07:32:15;;;;;;;16.63;11.27;;;8.50;99.90;;;;;;5035359;28;20491;-83
2021/11/24 07:34:41;;;;;;;15.23;10.27;;;8.50;99.90;;;;;;5034813;28;20477;-83
2021/11/24 07:37:08;;;;;;;15.80;11.30;;;8.60;99.90;;;;;;5034520;28;20880;-83
2021/11/24 07:39:34;;;;;;;16.23;9.80;;;8.60;99.90;;;;;;5034446;28;20453;-83
2021/11/24 07:42:01;;;;;;;18.73;10.70;;;8.60;99.90;;;;;;5034433;28;20511;-83
2021/11/24 07:44:28;;;;;;;12.73;11.00;;;8.70;99.90;;;;;;5034005;28;20481;-83
2021/11/24 07:46:55;;;;;;;13.13;10.00;;;8.70;99.90;;;;;;5034201;28;20519;-83
2021/11/24 07:49:22;;;;;;;17.03;10.90;;;8.70;99.90;;;;;;5034324;28;20493;-83
2021/11/24 07:51:49;;;;;;;15.40;10.37;;;8.70;99.90;;;;;;5034524;28;20480;-83
2021/11/24 07:54:15;;;;;;;11.80;9.90;;;8.70;99.90;;;;;;5034391;28;20453;-83
2021/11/24 07:56:42;;;;;;;13.60;10.13;;;8.70;99.90;;;;;;5033983;28;20513;-82
2021/11/24 07:59:08;;;;;;;14.57;10.37;;;8.70;99.90;;;;;;5033704;28;20495;-83
2021/11/24 08:01:35;;;;;;;15.23;11.20;;;8.70;99.90;;;;;;5034153;28;21041;-83
2021/11/24 08:04:03;;;;;;;11.00;9.40;;;8.70;99.90;;;;;;5034683;28;20548;-83
2021/11/24 08:06:29;;;;;;;13.93;9.87;;;8.70;99.90;;;;;;5034316;28;20473;-83
2021/11/24 08:08:56;;;;;;;13.97;9.90;;;8.70;99.90;;;;;;5034213;28;20492;-83
2021/11/24 08:11:23;;;;;;;15.03;11.20;;;8.80;99.90;;;;;;5034021;28;20507;-83
2021/11/24 08:13:49;;;;;;;14.00;9.57;;;8.80;99.90;;;;;;5033656;28;20887;-82
2021/11/24 08:16:16;;;;;;;18.40;9.90;;;8.80;99.90;;;;;;5033249;28;20481;-83
2021/11/24 08:18:42;;;;;;;14.07;9.90;;;8.90;99.90;;;;;;5033507;28;20453;-83
2021/11/24 08:21:10;;;;;;;11.97;9.03;;;8.90;99.90;;;;;;5033494;28;20540;-83
2021/11/24 08:23:37;;;;;;;10.57;8.93;;;9.00;99.90;;;;;;5033995;28;20500;-83
2021/11/24 08:26:03;;;;;;;11.47;8.50;;;9.00;99.90;;;;;;5033881;28;20556;-84
2021/11/24 08:28:30;;;;;;;16.90;10.90;;;9.00;99.90;;;;;;5034027;28;20480;-83
2021/11/24 08:30:57;;;;;;;12.40;9.70;;;9.10;99.90;;;;;;5033490;28;20863;-83
2021/11/24 08:33:23;;;;;;;15.17;10.10;;;9.10;99.90;;;;;;5032898;28;20448;-83
2021/11/24 08:35:50;;;;;;;13.80;8.90;;;9.20;99.90;;;;;;5033406;28;20536;-83
2021/11/24 08:38:18;;;;;;;13.50;9.80;;;9.20;99.90;;;;;;5033520;28;20873;-83
2021/11/24 08:40:45;;;;;;;12.27;9.43;;;9.30;99.90;;;;;;5033662;28;21010;-83
2021/11/24 08:43:12;;;;;;;14.03;9.57;;;9.40;99.90;;;;;;5033463;28;20449;-83
2021/11/24 08:45:39;;;;;;;12.13;9.20;;;9.50;99.90;;;;;;5033140;28;20532;-83
2021/11/24 08:48:06;;;;;;;12.23;9.57;;;9.60;99.90;;;;;;5033408;28;20527;-83
2021/11/24 08:50:33;;;;;;;11.27;9.83;;;9.60;99.90;;;;;;5033584;28;20545;-83
2021/11/24 08:53:00;;;;;;;14.50;10.03;;;9.60;99.90;;;;;;5033323;28;20883;-83
2021/11/24 08:55:28;;;;;;;13.53;9.33;;;9.70;99.90;;;;;;5033220;28;20571;-83
2021/11/24 08:57:55;;;;;;;13.63;10.03;;;9.70;99.90;;;;;;5033380;28;20507;-84
2021/11/24 09:00:23;;;;;;;12.23;8.43;;;9.70;99.90;;;;;;5033446;28;20480;-84
2021/11/24 09:02:50;;;;;;;11.37;8.90;;;9.70;99.90;;;;;;5033808;28;20454;-83
2021/11/24 09:05:18;;;;;;;12.37;9.10;;;9.70;99.90;;;;;;5033173;28;20455;-83
2021/11/24 09:07:46;;;;;;;11.33;8.73;;;9.70;99.90;;;;;;5033167;28;20576;-83
2021/11/24 09:10:13;;;;;;;13.20;9.00;;;9.80;99.90;;;;;;5033094;28;20508;-83
2021/11/24 09:12:42;;;;;;;11.97;9.23;;;9.80;99.90;;;;;;5032912;28;20449;-83
2021/11/24 09:15:09;;;;;;;10.73;8.57;;;9.90;99.90;;;;;;5033282;28;20444;-83
2021/11/24 09:17:35;;;;;;;10.63;8.10;;;9.90;99.90;;;;;;5032926;28;20809;-83
2021/11/24 09:20:02;;;;;;;14.83;10.13;;;10.00;99.90;;;;;;5032747;28;20886;-83
2021/11/24 09:22:29;;;;;;;14.30;9.60;;;10.00;99.90;;;;;;5032989;28;20555;-83
2021/11/24 09:24:57;;;;;;;9.53;7.37;;;10.00;99.90;;;;;;5032953;28;20481;-83
2021/11/24 09:27:30;;;;;;;17.70;9.33;;;10.00;99.90;;;;;;5033122;28;20491;-84
2021/11/24 09:30:00;;;;;;;12.40;8.60;;;9.90;99.90;;;;;;5032865;28;20444;-83
2021/11/24 09:32:27;;;;;;;11.60;8.33;;;9.80;99.90;;;;;;5032738;28;20485;-84
2021/11/24 09:34:54;;;;;;;9.10;7.80;;;9.70;99.90;;;;;;5032999;28;20576;-83
2021/11/24 09:37:20;;;;;;;10.87;8.13;;;9.60;99.90;;;;;;5032619;28;20537;-83
2021/11/24 09:39:47;;;;;;;9.80;7.60;;;9.60;99.90;;;;;;5033142;28;20449;-83
2021/11/24 09:42:16;;;;;;;9.93;8.30;;;9.50;99.90;;;;;;5033148;28;20453;-83
2021/11/24 09:44:46;;;;;;;14.00;8.83;;;9.40;99.90;;;;;;5033394;28;20540;-83
2021/11/24 09:47:15;;;;;;;11.67;8.07;;;9.30;99.90;;;;;;5036508;28;20535;-83
2021/11/24 09:49:46;;;;;;;11.83;7.77;;;9.40;99.90;;;;;;5036757;28;20543;-83
2021/11/24 09:52:13;;;;;;;13.93;6.87;;;9.50;99.90;;;;;;5036321;28;20449;-83
2021/11/24 09:54:41;;;;;;;12.47;8.03;;;9.60;99.90;;;;;;5036389;28;20503;-83
2021/11/24 09:57:08;;;;;;;9.70;7.30;;;9.80;99.90;;;;;;5036489;28;20499;-83
2021/11/24 09:59:34;;;;;;;10.07;7.80;;;9.90;99.90;;;;;;5036255;28;20540;-83
2021/11/24 10:02:01;;;;;;;10.17;7.03;;;9.90;99.90;;;;;;5036029;28;20956;-83
2021/11/24 10:04:29;;;;;;;8.67;6.67;;;9.90;99.90;;;;;;5036411;28;20459;-83
2021/11/24 10:06:56;;;;;;;8.30;6.67;;;9.90;99.90;;;;;;5036620;28;20539;-83
2021/11/24 10:09:22;;;;;;;10.33;6.00;;;10.00;99.90;;;;;;5036198;28;20544;-83
2021/11/24 10:11:49;;;;;;;11.53;7.57;;;10.00;99.90;;;;;;5036266;28;20547;-83
2021/11/24 10:14:16;;;;;;;11.87;7.83;;;10.10;99.90;;;;;;5035973;28;20479;-83
2021/11/24 10:16:42;;;;;;;8.63;6.93;;;10.10;99.90;;;;;;5036242;28;20511;-83
2021/11/24 10:19:11;;;;;;;7.90;6.40;;;10.20;99.90;;;;;;5035860;28;20531;-83
2021/11/24 10:21:56;;;;;;;9.37;7.30;;;10.10;99.90;;;;;;5035753;28;20542;-84
2021/11/24 10:24:31;;;;;;;9.23;7.20;;;10.10;99.90;;;;;;5035860;28;20449;-84
2021/11/24 10:26:58;;;;;;;10.30;7.50;;;10.10;99.90;;;;;;5035291;28;20452;-83
2021/11/24 10:29:25;;;;;;;17.43;9.83;;;10.10;99.90;;;;;;5035746;28;20548;-83
2021/11/24 10:31:53;;;;;;;11.00;6.50;;;10.20;99.90;;;;;;5035677;28;21003;-83
2021/11/24 10:34:23;;;;;;;10.93;7.40;;;10.30;99.90;;;;;;5035519;28;20540;-84
2021/11/24 10:37:00;;;;;;;9.60;7.43;;;10.40;99.90;;;;;;5035357;28;20445;-84
2021/11/24 10:39:29;;;;;;;10.97;8.10;;;10.50;99.90;;;;;;5035353;28;20859;-83
2021/11/24 10:42:04;;;;;;;10.83;7.03;;;10.50;99.90;;;;;;5035534;28;20536;-83
2021/11/24 10:44:33;;;;;;;12.53;8.00;;;10.50;99.90;;;;;;5015848;28;20548;-84
2021/11/24 10:47:00;;;;;;;10.40;8.30;;;10.50;99.90;;;;;;5015405;28;20457;-84
2021/11/24 10:49:34;;;;;;;14.10;8.23;;;10.50;99.90;;;;;;5015304;28;20485;-83
2021/11/24 10:52:12;;;;;;;11.30;8.47;;;10.50;99.90;;;;;;5015254;28;20481;-83
2021/11/24 10:54:39;;;;;;;13.57;9.27;;;10.50;99.90;;;;;;5015386;28;20454;-84
2021/11/24 10:57:08;;;;;;;10.17;7.83;;;10.50;99.90;;;;;;5014657;28;20811;-83
2021/11/24 10:59:37;;;;;;;11.83;8.77;;;10.50;99.90;;;;;;5015339;28;20557;-84
2021/11/24 11:02:26;;;;;;;11.70;8.53;;;10.50;99.90;;;;;;5015060;28;20450;-83
2021/11/24 11:05:02;;;;;;;10.30;7.63;;;10.50;99.90;;;;;;5015571;28;20450;-83
2021/11/24 11:07:32;;;;;;;12.83;8.10;;;10.50;99.90;;;;;;5015336;28;20481;-83
2021/11/24 11:10:01;;;;;;;11.20;7.70;;;10.50;99.90;;;;;;5015569;28;20454;-84
2021/11/24 11:12:31;;;;;;;11.73;7.13;;;10.50;99.90;;;;;;5015132;28;20496;-84
2021/11/24 11:15:12;;;;;;;11.13;8.00;;;10.60;99.90;;;;;;5015249;28;20454;-83
2021/11/24 11:17:51;;;;;;;8.57;7.50;;;10.60;99.90;;;;;;5015416;28;20878;-84
2021/11/24 11:20:18;;;;;;;10.40;8.37;;;10.70;99.90;;;;;;5015452;28;21015;-84
2021/11/24 11:22:51;;;;;;;9.53;7.40;;;10.80;99.90;;;;;;5015603;28;20449;-84
2021/11/24 11:25:18;;;;;;;9.53;7.07;;;10.80;99.90;;;;;;5015596;28;20492;-83
2021/11/24 11:27:45;;;;;;;8.90;6.90;;;10.90;99.90;;;;;;5015461;28;20529;-84
2021/11/24 11:30:12;;;;;;;10.07;6.87;;;10.90;99.90;;;;;;5015310;28;20541;-84
2021/11/24 11:32:39;;;;;;;9.83;7.03;;;10.90;99.90;;;;;;5014829;28;20482;-84
2021/11/24 11:35:07;;;;;;;11.40;7.43;;;10.90;99.90;;;;;;5015413;28;20496;-84
2021/11/24 11:37:33;;;;;;;8.40;6.97;;;10.90;99.90;;;;;;5015119;28;20975;-83
2021/11/24 11:40:01;;;;;;;8.50;6.50;;;10.90;99.90;;;;;;5014944;28;20549;-84
2021/11/24 11:42:30;;;;;;;7.27;6.03;;;10.90;99.90;;;;;;5018138;28;21017;-84
2021/11/24 11:45:01;;;;;;;6.17;5.20;;;10.80;99.90;;;;;;5035106;28;20449;-84
2021/11/24 11:47:52;;;;;;;8.20;7.00;;;10.80;99.90;;;;;;5034650;28;20473;-84
2021/11/24 11:50:55;;;;;;;8.57;6.80;;;10.70;99.90;;;;;;5034208;28;20452;-84
2021/11/24 11:53:24;;;;;;;9.30;6.77;;;10.60;99.90;;;;;;5012817;28;20452;-84
2021/11/24 11:56:21;;;;;;;7.07;6.07;;;10.60;99.90;;;;;;5033979;28;20473;-84
2021/11/24 11:58:57;;;;;;;8.60;7.50;;;10.50;99.90;;;;;;5034011;28;21027;-83
2021/11/24 12:01:26;;;;;;;8.20;7.17;;;10.40;99.90;;;;;;5033929;28;20449;-83
2021/11/24 12:04:03;;;;;;;10.20;6.57;;;10.30;99.90;;;;;;5034148;28;20537;-83
2021/11/24 12:06:32;;;;;;;9.10;6.87;;;10.30;99.90;;;;;;5033899;28;20441;-83
2021/11/24 12:09:10;;;;;;;8.17;6.57;;;10.30;99.90;;;;;;5033192;28;20484;-83
2021/11/24 12:12:13;;;;;;;10.10;6.83;;;10.20;99.90;;;;;;5034070;28;20480;-83
2021/11/24 12:14:50;;;;;;;7.17;5.10;;;10.10;99.90;;;;;;5033106;28;20973;-83
2021/11/24 12:17:51;;;;;;;5.20;4.70;;;10.10;99.90;;;;;;5033856;28;20468;-83
2021/11/24 12:20:46;;;;;;;10.00;4.73;;;10.00;99.90;;;;;;5034685;28;20503;-83
2021/11/24 12:23:15;;;;;;;6.33;4.90;;;10.00;99.90;;;;;;5033599;28;20499;-84
2021/11/24 12:25:44;;;;;;;5.30;4.50;;;9.90;99.90;;;;;;5033295;28;20546;-83
2021/11/24 12:28:13;;;;;;;5.30;4.30;;;9.90;99.90;;;;;;5033529;28;20477;-83
2021/11/24 12:31:06;;;;;;;4.93;4.30;;;9.90;99.90;;;;;;5033446;28;20455;-83
2021/11/24 12:33:37;;;;;;;10.00;4.70;;;9.90;99.90;;;;;;5033474;28;20449;-83
2021/11/24 12:36:07;;;;;;;6.17;4.77;;;9.90;99.90;;;;;;5033611;28;20501;-83
2021/11/24 12:38:36;;;;;;;5.63;4.67;;;9.90;99.90;;;;;;5032977;28;20808;-83
2021/11/24 12:41:06;;;;;;;5.60;4.90;;;9.90;99.90;;;;;;5033486;28;20481;-83
2021/11/24 12:43:35;;;;;;;6.60;5.53;;;9.90;99.90;;;;;;5033050;28;20544;-83
2021/11/24 12:46:07;;;;;;;5.83;4.80;;;9.90;99.90;;;;;;5033496;28;20480;-83
2021/11/24 12:48:35;;;;;;;6.60;5.00;;;9.80;99.90;;;;;;5033060;28;20484;-83